Time;durP1;ratioP1;P1;durP2;ratioP2;P2;SDS_P1;SDS_P2;PMS_P1;PMS_P2;Temp;Humidity;BMP_temperature;BMP_pressure;BME280_temperature;BME280_humidity;BME280_pressure;Samples;Min_cycle;Max_cycle;Signal;HPM_P1;HPM_P2
2022/01/29 00:02:47;;;;;;;10.20;5.97;;;;;;;;;;6131791;23;20502;-86
2022/01/29 00:05:52;;;;;;;8.67;5.13;;;;;;;;;;6131994;23;20501;-86
2022/01/29 00:08:57;;;;;;;9.30;5.83;;;;;;;;;;6148593;23;20829;-86
2022/01/29 00:12:02;;;;;;;12.73;6.53;;;;;;;;;;6148296;23;20561;-88
2022/01/29 00:15:06;;;;;;;11.37;6.63;;;;;;;;;;6122444;23;20887;-86
2022/01/29 00:18:11;;;;;;;9.73;6.23;;;;;;;;;;6148124;23;20505;-85
2022/01/29 00:21:15;;;;;;;9.80;5.70;;;;;;;;;;6148301;23;20501;-88
2022/01/29 00:24:19;;;;;;;12.20;6.57;;;;;;;;;;6125463;23;20573;-88
2022/01/29 00:27:26;;;;;;;9.80;6.10;;;;;;;;;;6138228;23;20544;-88
2022/01/29 00:30:36;;;;;;;9.47;6.33;;;;;;;;;;6148105;23;20517;-88
2022/01/29 00:33:41;;;;;;;13.50;6.30;;;;;;;;;;6159655;23;20630;-88
2022/01/29 00:36:44;;;;;;;8.57;5.47;;;;;;;;;;6173952;23;20511;-88
2022/01/29 00:39:49;;;;;;;10.77;6.40;;;;;;;;;;6173557;23;20508;-89
2022/01/29 00:42:53;;;;;;;12.07;5.93;;;;;;;;;;6173993;23;20504;-90
2022/01/29 00:45:57;;;;;;;10.13;5.80;;;;;;;;;;6144549;23;20799;-89
2022/01/29 00:49:01;;;;;;;10.43;5.83;;;;;;;;;;6161521;23;20500;-89
2022/01/29 00:52:05;;;;;;;12.23;5.57;;;;;;;;;;6144755;23;20552;-90
2022/01/29 00:55:11;;;;;;;11.83;5.83;;;;;;;;;;6135808;23;20579;-90
2022/01/29 00:58:15;;;;;;;8.73;5.10;;;;;;;;;;6144328;23;20500;-90
2022/01/29 01:01:19;;;;;;;10.67;6.03;;;;;;;;;;6144459;23;20509;-90
2022/01/29 01:04:23;;;;;;;10.80;6.30;;;;;;;;;;6139114;23;20568;-89
2022/01/29 01:07:27;;;;;;;10.40;5.73;;;;;;;;;;6144413;23;20505;-90
2022/01/29 01:10:32;;;;;;;9.40;5.70;;;;;;;;;;6167966;23;20556;-89
2022/01/29 01:13:36;;;;;;;7.83;5.63;;;;;;;;;;6159517;23;20933;-90
2022/01/29 01:16:41;;;;;;;16.50;5.87;;;;;;;;;;6161740;23;20513;-89
2022/01/29 01:19:45;;;;;;;11.50;6.07;;;;;;;;;;6145888;23;21029;-89
2022/01/29 01:22:50;;;;;;;9.27;5.83;;;;;;;;;;6145847;23;20504;-89
2022/01/29 01:25:54;;;;;;;11.90;5.97;;;;;;;;;;6162790;23;20509;-89
2022/01/29 01:28:59;;;;;;;10.63;5.50;;;;;;;;;;6162682;23;20508;-89
2022/01/29 01:32:03;;;;;;;11.03;6.37;;;;;;;;;;6145481;23;20500;-89
2022/01/29 01:35:22;;;;;;;9.97;5.50;;;;;;;;;;6124910;23;21152;-89
2022/01/29 01:38:42;;;;;;;9.30;5.73;;;;;;;;;;6132939;23;20501;-89
2022/01/29 01:41:55;;;;;;;13.87;6.37;;;;;;;;;;6133092;23;20506;-89
2022/01/29 01:45:00;;;;;;;9.23;5.40;;;;;;;;;;6123211;23;21148;-89
2022/01/29 01:48:06;;;;;;;12.20;5.53;;;;;;;;;;6132882;23;20509;-89
2022/01/29 01:51:10;;;;;;;11.97;5.80;;;;;;;;;;6123297;23;20548;-89
2022/01/29 01:54:14;;;;;;;9.27;5.47;;;;;;;;;;6128024;23;20608;-89
2022/01/29 01:57:18;;;;;;;7.77;5.10;;;;;;;;;;6132857;23;20514;-89
2022/01/29 02:00:22;;;;;;;9.50;5.53;;;;;;;;;;6149538;23;20505;-90
2022/01/29 02:03:26;;;;;;;9.00;5.23;;;;;;;;;;6123098;23;20553;-90
2022/01/29 02:06:30;;;;;;;7.93;5.47;;;;;;;;;;6122975;23;20552;-89
2022/01/29 02:09:37;;;;;;;10.70;5.73;;;;;;;;;;6132756;23;21018;-90
2022/01/29 02:12:51;;;;;;;10.27;7.00;;;;;;;;;;6132952;23;20552;-89
2022/01/29 02:15:55;;;;;;;11.07;6.10;;;;;;;;;;6132941;23;20510;-89
2022/01/29 02:18:59;;;;;;;10.63;5.97;;;;;;;;;;6132539;23;20505;-90
2022/01/29 02:22:04;;;;;;;11.07;5.70;;;;;;;;;;6132443;23;20505;-90
2022/01/29 02:25:36;;;;;;;10.63;6.07;;;;;;;;;;6124344;23;20572;-90
2022/01/29 02:28:41;;;;;;;12.23;6.37;;;;;;;;;;6132845;23;21018;-89
2022/01/29 02:31:47;;;;;;;9.43;5.57;;;;;;;;;;6140454;23;20501;-90
2022/01/29 02:34:51;;;;;;;10.90;5.70;;;;;;;;;;6156568;23;20589;-90
2022/01/29 02:37:56;;;;;;;13.23;5.90;;;;;;;;;;6132982;23;20509;-90
2022/01/29 02:41:04;;;;;;;9.53;5.40;;;;;;;;;;6149394;23;20505;-90
2022/01/29 02:44:09;;;;;;;10.23;5.60;;;;;;;;;;6128843;23;20580;-89
2022/01/29 02:47:27;;;;;;;12.03;5.83;;;;;;;;;;6132613;23;20506;-89
2022/01/29 02:50:31;;;;;;;10.37;5.70;;;;;;;;;;6132222;23;20510;-90
2022/01/29 02:53:35;;;;;;;9.80;5.90;;;;;;;;;;6130500;23;20613;-89
2022/01/29 02:56:40;;;;;;;10.07;5.47;;;;;;;;;;6132183;23;20514;-90
2022/01/29 02:59:44;;;;;;;9.13;5.80;;;;;;;;;;6122266;23;21116;-90
2022/01/29 03:02:48;;;;;;;9.00;5.77;;;;;;;;;;6131860;23;20505;-90
2022/01/29 03:05:52;;;;;;;9.20;5.40;;;;;;;;;;6132308;23;20505;-89
2022/01/29 03:08:57;;;;;;;10.27;5.97;;;;;;;;;;6132259;23;20509;-89
2022/01/29 03:12:02;;;;;;;12.80;5.83;;;;;;;;;;6148960;23;20506;-90
2022/01/29 03:15:12;;;;;;;7.83;5.47;;;;;;;;;;6140985;23;20573;-90
2022/01/29 03:18:16;;;;;;;9.40;5.40;;;;;;;;;;6132001;23;21030;-90
2022/01/29 03:21:20;;;;;;;9.73;6.30;;;;;;;;;;6132071;23;20517;-90
2022/01/29 03:24:25;;;;;;;8.03;5.73;;;;;;;;;;6126770;23;21129;-90
2022/01/29 03:27:29;;;;;;;9.80;6.27;;;;;;;;;;6131887;23;20502;-90
2022/01/29 03:30:33;;;;;;;9.33;5.80;;;;;;;;;;6131856;23;20506;-89
2022/01/29 03:33:38;;;;;;;10.97;6.07;;;;;;;;;;6132820;23;20615;-89
2022/01/29 03:36:42;;;;;;;9.63;5.93;;;;;;;;;;6144392;23;20823;-90
2022/01/29 03:39:46;;;;;;;9.00;5.67;;;;;;;;;;6144244;23;20500;-89
2022/01/29 03:43:04;;;;;;;11.13;6.80;;;;;;;;;;6144631;23;20501;-89
2022/01/29 03:46:08;;;;;;;9.63;5.93;;;;;;;;;;6134474;23;20557;-90
2022/01/29 03:49:12;;;;;;;8.37;5.67;;;;;;;;;;6161274;23;20838;-90
2022/01/29 03:52:16;;;;;;;9.63;5.87;;;;;;;;;;6144724;23;20504;-89
2022/01/29 03:55:21;;;;;;;9.40;5.87;;;;;;;;;;6135268;23;20564;-89
2022/01/29 03:58:25;;;;;;;12.10;6.87;;;;;;;;;;6134714;23;20560;-90
2022/01/29 04:01:30;;;;;;;9.47;5.30;;;;;;;;;;6134806;23;20560;-90
2022/01/29 04:04:34;;;;;;;12.70;5.80;;;;;;;;;;6138504;23;20905;-89
2022/01/29 04:07:40;;;;;;;11.07;6.20;;;;;;;;;;6144736;23;20501;-89
2022/01/29 04:10:46;;;;;;;9.93;6.03;;;;;;;;;;6144428;23;20505;-89
2022/01/29 04:13:51;;;;;;;9.07;5.70;;;;;;;;;;6141470;23;20611;-89
2022/01/29 04:16:55;;;;;;;10.27;6.27;;;;;;;;;;6144527;23;20512;-89
2022/01/29 04:19:59;;;;;;;9.13;5.87;;;;;;;;;;6150960;23;20552;-90
2022/01/29 04:23:06;;;;;;;8.27;5.90;;;;;;;;;;6144143;23;20504;-89
2022/01/29 04:26:10;;;;;;;9.40;5.90;;;;;;;;;;6151643;23;20560;-89
2022/01/29 04:29:15;;;;;;;14.07;5.53;;;;;;;;;;6143910;23;20504;-89
2022/01/29 04:32:25;;;;;;;8.07;5.50;;;;;;;;;;6144265;23;20509;-89
2022/01/29 04:35:30;;;;;;;10.67;5.57;;;;;;;;;;6122424;23;20588;-89
2022/01/29 04:38:35;;;;;;;8.77;5.00;;;;;;;;;;6139027;23;21097;-89
2022/01/29 04:41:39;;;;;;;7.57;5.50;;;;;;;;;;6121836;23;20561;-89
2022/01/29 04:44:43;;;;;;;11.73;6.00;;;;;;;;;;6125380;23;20577;-90
2022/01/29 04:47:47;;;;;;;7.73;5.03;;;;;;;;;;6131658;23;21030;-89
2022/01/29 04:50:51;;;;;;;9.13;4.77;;;;;;;;;;6138552;23;21108;-90
2022/01/29 04:53:55;;;;;;;8.27;5.40;;;;;;;;;;6130440;23;21159;-89
2022/01/29 04:56:59;;;;;;;7.43;5.03;;;;;;;;;;6133415;23;20514;-89
2022/01/29 05:00:10;;;;;;;10.13;4.77;;;;;;;;;;6133380;23;20505;-89
2022/01/29 05:03:14;;;;;;;7.90;4.53;;;;;;;;;;6133155;23;20502;-90
2022/01/29 05:06:19;;;;;;;7.73;4.70;;;;;;;;;;6150101;23;20556;-89
2022/01/29 05:09:23;;;;;;;7.47;4.70;;;;;;;;;;6133286;23;20505;-89
2022/01/29 05:12:34;;;;;;;6.87;4.90;;;;;;;;;;6133191;23;20509;-89
2022/01/29 05:15:53;;;;;;;8.33;4.90;;;;;;;;;;6149815;23;20494;-89
2022/01/29 05:29:06;;;;;;;6.43;4.67;;;;;;;;;;6149681;23;20506;-89
2022/01/29 05:32:12;;;;;;;11.17;3.77;;;;;;;;;;6132731;23;20509;-89
2022/01/29 05:35:16;;;;;;;4.73;3.40;;;;;;;;;;6140691;23;20613;-89
2022/01/29 05:38:21;;;;;;;5.10;3.50;;;;;;;;;;6132656;23;20526;-89
2022/01/29 05:41:25;;;;;;;6.80;3.73;;;;;;;;;;6122760;23;20549;-90
2022/01/29 05:44:29;;;;;;;5.73;3.30;;;;;;;;;;6139606;23;20577;-88
2022/01/29 05:47:35;;;;;;;7.70;4.27;;;;;;;;;;6140252;23;20560;-88
2022/01/29 05:50:39;;;;;;;5.63;3.60;;;;;;;;;;6133372;23;20509;-89
2022/01/29 05:53:43;;;;;;;5.43;3.43;;;;;;;;;;6123113;23;20616;-90
2022/01/29 05:56:47;;;;;;;5.17;3.60;;;;;;;;;;6123475;23;20564;-89
2022/01/29 05:59:51;;;;;;;5.20;3.20;;;;;;;;;;6132782;23;20505;-90
2022/01/29 06:03:04;;;;;;;8.00;3.20;;;;;;;;;;6150837;23;20826;-89
2022/01/29 06:06:07;;;;;;;3.87;2.70;;;;;;;;;;6133866;23;20502;-90
2022/01/29 06:09:12;;;;;;;6.47;3.20;;;;;;;;;;6160350;23;20560;-90
2022/01/29 06:12:16;;;;;;;4.70;3.07;;;;;;;;;;6176878;23;20560;-89
2022/01/29 06:15:21;;;;;;;9.40;3.00;;;;;;;;;;6123965;23;20612;-89
2022/01/29 06:18:25;;;;;;;5.53;2.80;;;;;;;;;;6133525;23;20510;-89
2022/01/29 06:21:29;;;;;;;4.70;3.20;;;;;;;;;;6156878;23;20553;-89
2022/01/29 06:24:33;;;;;;;4.87;3.23;;;;;;;;;;6127513;23;20569;-90
2022/01/29 06:27:38;;;;;;;4.40;2.80;;;;;;;;;;6132775;23;20509;-90
2022/01/29 06:30:42;;;;;;;5.20;3.10;;;;;;;;;;6133179;23;20505;-90
2022/01/29 06:46:50;;;;;;;5.77;2.80;;;;;;;;;;6209107;23;20488;-89
2022/01/29 06:49:54;;;;;;;4.53;2.80;;;;;;;;;;6175474;23;20824;-89
2022/01/29 06:52:58;;;;;;;9.47;3.07;;;;;;;;;;6191786;23;20516;-90
2022/01/29 06:56:02;;;;;;;6.40;2.80;;;;;;;;;;6191914;23;20504;-89
2022/01/29 06:59:06;;;;;;;9.33;3.33;;;;;;;;;;6164823;23;20558;-89
2022/01/29 07:02:11;;;;;;;7.97;3.70;;;;;;;;;;6165812;23;20559;-90
2022/01/29 07:05:15;;;;;;;4.93;3.20;;;;;;;;;;6164552;23;20579;-90
2022/01/29 07:08:19;;;;;;;18.10;15.00;;;;;;;;;;6164532;23;20892;-91
2022/01/29 07:11:24;;;;;;;10.23;8.10;;;;;;;;;;6191751;23;20504;-89
2022/01/29 07:14:29;;;;;;;7.60;4.80;;;;;;;;;;6185227;23;20611;-88
2022/01/29 07:17:34;;;;;;;9.10;7.80;;;;;;;;;;6195185;23;20504;-89
2022/01/29 07:20:38;;;;;;;8.67;7.10;;;;;;;;;;6176044;23;20504;-88
2022/01/29 07:23:42;;;;;;;8.90;4.10;;;;;;;;;;6165049;23;20559;-88
2022/01/29 07:26:46;;;;;;;5.73;4.03;;;;;;;;;;6191549;23;20503;-89
2022/01/29 07:29:50;;;;;;;5.20;3.50;;;;;;;;;;6174266;23;20520;-88
2022/01/29 07:32:54;;;;;;;6.27;3.20;;;;;;;;;;6174405;23;20504;-89
2022/01/29 07:35:58;;;;;;;7.47;3.50;;;;;;;;;;6164529;23;20608;-89
2022/01/29 07:39:03;;;;;;;7.27;3.57;;;;;;;;;;6174184;23;21029;-90
2022/01/29 07:42:08;;;;;;;7.50;4.83;;;;;;;;;;6164141;23;20555;-90
2022/01/29 07:45:13;;;;;;;4.27;3.13;;;;;;;;;;6167156;23;20575;-89
2022/01/29 07:48:17;;;;;;;5.20;3.83;;;;;;;;;;6174526;23;20503;-90
2022/01/29 07:51:21;;;;;;;6.87;3.27;;;;;;;;;;6174438;23;20507;-90
2022/01/29 07:54:25;;;;;;;19.30;12.90;;;;;;;;;;6170418;23;20619;-90
2022/01/29 07:57:29;;;;;;;68.13;39.13;;;;;;;;;;6174288;23;20818;-90
2022/01/29 08:00:34;;;;;;;26.30;14.27;;;;;;;;;;6174133;23;20515;-89
2022/01/29 08:03:38;;;;;;;61.43;27.23;;;;;;;;;;6173470;23;20508;-90
2022/01/29 08:06:42;;;;;;;61.33;31.07;;;;;;;;;;6191317;23;20512;-90
2022/01/29 08:09:46;;;;;;;108.20;44.63;;;;;;;;;;6191485;23;20508;-90
2022/01/29 08:12:51;;;;;;;152.63;65.23;;;;;;;;;;6173859;23;20512;-90
2022/01/29 08:15:55;;;;;;;14.87;11.53;;;;;;;;;;6180985;23;20614;-89
2022/01/29 08:18:59;;;;;;;9.60;6.43;;;;;;;;;;6174075;23;20508;-90
2022/01/29 08:22:03;;;;;;;9.63;7.43;;;;;;;;;;6191129;23;20508;-90
2022/01/29 08:25:07;;;;;;;11.37;10.03;;;;;;;;;;6167751;23;20579;-89
2022/01/29 08:28:11;;;;;;;10.73;6.73;;;;;;;;;;6193106;23;20818;-90
2022/01/29 08:31:15;;;;;;;7.20;5.10;;;;;;;;;;6176458;23;20503;-90
2022/01/29 08:34:20;;;;;;;12.00;6.27;;;;;;;;;;6172640;23;20610;-90
2022/01/29 08:37:24;;;;;;;12.70;7.57;;;;;;;;;;6168861;23;20180;-90
2022/01/29 08:40:29;;;;;;;8.67;5.20;;;;;;;;;;6166401;23;21102;-90
2022/01/29 08:43:34;;;;;;;6.30;3.43;;;;;;;;;;6166284;23;20558;-90
2022/01/29 08:46:38;;;;;;;4.90;2.93;;;;;;;;;;6165840;23;20555;-90
2022/01/29 08:49:42;;;;;;;8.40;4.73;;;;;;;;;;6176055;23;20507;-89
2022/01/29 08:52:46;;;;;;;8.87;4.33;;;;;;;;;;6175619;23;20152;-89
2022/01/29 08:55:51;;;;;;;8.90;4.40;;;;;;;;;;6165911;23;20200;-89
2022/01/29 08:58:55;;;;;;;9.30;5.83;;;;;;;;;;6192634;23;20848;-88
2022/01/29 09:01:59;;;;;;;5.03;3.63;;;;;;;;;;6209877;23;20153;-88
2022/01/29 09:05:05;;;;;;;4.87;3.00;;;;;;;;;;6165851;23;20583;-89
2022/01/29 09:08:09;;;;;;;8.80;3.97;;;;;;;;;;6165418;23;21103;-88
2022/01/29 09:11:15;;;;;;;17.90;9.20;;;;;;;;;;6176056;23;20840;-90
2022/01/29 09:14:20;;;;;;;18.17;10.47;;;;;;;;;;6172434;23;20575;-90
2022/01/29 09:17:24;;;;;;;8.13;4.70;;;;;;;;;;6192449;23;20503;-90
2022/01/29 09:20:30;;;;;;;26.80;14.67;;;;;;;;;;6175297;23;20507;-90
2022/01/29 09:23:34;;;;;;;12.13;7.40;;;;;;;;;;6192471;23;20148;-89
2022/01/29 09:26:38;;;;;;;14.83;7.43;;;;;;;;;;6175318;23;20148;-89
2022/01/29 09:29:43;;;;;;;10.87;5.70;;;;;;;;;;6175252;23;20516;-90
2022/01/29 09:32:47;;;;;;;13.43;7.10;;;;;;;;;;6192393;23;20593;-89
2022/01/29 09:35:51;;;;;;;9.10;5.60;;;;;;;;;;6182456;23;20618;-90
2022/01/29 09:38:55;;;;;;;6.80;5.43;;;;;;;;;;6175106;23;20160;-89
2022/01/29 09:42:01;;;;;;;12.40;7.07;;;;;;;;;;6175050;23;20833;-90
2022/01/29 09:45:08;;;;;;;8.20;4.50;;;;;;;;;;6185556;23;20889;-90
2022/01/29 09:48:13;;;;;;;10.10;6.87;;;;;;;;;;6209571;23;20152;-90
2022/01/29 09:51:17;;;;;;;7.70;4.80;;;;;;;;;;6175232;23;20156;-90
2022/01/29 09:54:21;;;;;;;8.97;4.83;;;;;;;;;;6189062;23;20192;-89
2022/01/29 09:57:26;;;;;;;7.27;4.80;;;;;;;;;;6176295;23;20515;-89
2022/01/29 10:00:31;;;;;;;6.97;5.20;;;;;;;;;;6193715;23;20152;-89
2022/01/29 10:03:35;;;;;;;9.40;4.50;;;;;;;;;;6175329;23;20149;-89
2022/01/29 10:06:43;;;;;;;8.53;4.80;;;;;;;;;;6175120;23;21020;-88
2022/01/29 10:09:47;;;;;;;9.10;5.03;;;;;;;;;;6165154;23;20172;-89
2022/01/29 10:12:52;;;;;;;7.80;5.67;;;;;;;;;;6164813;23;20168;-88
2022/01/29 10:16:10;;;;;;;11.33;6.10;;;;;;;;;;6165031;23;20200;-89
2022/01/29 10:19:13;;;;;;;14.53;10.43;;;;;;;;;;6191827;23;20601;-90
2022/01/29 10:22:22;;;;;;;22.57;12.57;;;;;;;;;;6191760;23;20152;-90
2022/01/29 10:25:36;;;;;;;27.17;16.63;;;;;;;;;;6167000;23;20494;-89
2022/01/29 10:28:40;;;;;;;26.60;18.43;;;;;;;;;;6175363;23;20156;-89
2022/01/29 10:31:50;;;;;;;24.97;15.97;;;;;;;;;;6191559;23;20156;-86
2022/01/29 10:34:56;;;;;;;15.03;8.27;;;;;;;;;;6181456;23;20196;-87
2022/01/29 10:38:00;;;;;;;10.77;5.53;;;;;;;;;;6151868;23;20478;-88
2022/01/29 10:41:13;;;;;;;16.43;9.50;;;;;;;;;;6161638;23;20157;-88
2022/01/29 10:47:21;;;;;;;9.37;5.67;;;;;;;;;;6179693;23;20149;-87
2022/01/29 10:50:27;;;;;;;6.87;5.20;;;;;;;;;;6161611;23;20602;-89
2022/01/29 10:53:31;;;;;;;8.10;4.90;;;;;;;;;;6179210;23;20495;-88
2022/01/29 10:57:03;;;;;;;11.60;5.60;;;;;;;;;;6178728;23;20189;-88
2022/01/29 11:00:23;;;;;;;7.90;5.00;;;;;;;;;;6165571;23;20164;-85
2022/01/29 11:03:27;;;;;;;7.20;5.67;;;;;;;;;;6199761;23;20157;-83
2022/01/29 11:06:35;;;;;;;7.23;4.43;;;;;;;;;;6170227;23;20502;-88
2022/01/29 11:10:07;;;;;;;8.23;5.10;;;;;;;;;;6178552;23;20153;-88
2022/01/29 11:13:46;;;;;;;8.30;5.83;;;;;;;;;;6161643;23;20594;-88
2022/01/29 13:18:00;;;;;;;5.93;3.93;;;;;;;;;;6229695;23;20148;-83
2022/01/29 13:21:04;;;;;;;6.50;3.53;;;;;;;;;;6211696;23;20477;-84
2022/01/29 13:24:50;;;;;;;4.17;3.40;;;;;;;;;;6175130;23;20494;-84
2022/01/29 13:28:09;;;;;;;7.43;6.00;;;;;;;;;;6160154;23;20176;-85
2022/01/29 13:31:14;;;;;;;23.93;10.47;;;;;;;;;;6195227;23;20482;-83
2022/01/29 13:34:43;;;;;;;9.93;4.80;;;;;;;;;;6167047;23;20192;-84
2022/01/29 13:38:10;;;;;;;23.57;13.63;;;;;;;;;;6195646;23;20152;-83
2022/01/29 13:41:21;;;;;;;19.40;9.83;;;;;;;;;;6194607;23;20153;-84
2022/01/29 13:44:24;;;;;;;5.07;3.37;;;;;;;;;;6210294;23;20196;-84
2022/01/29 13:47:29;;;;;;;10.60;6.97;;;;;;;;;;6177971;23;20148;-84
2022/01/29 13:50:36;;;;;;;5.00;3.80;;;;;;;;;;6195093;23;20152;-84
2022/01/29 13:53:46;;;;;;;29.97;19.33;;;;;;;;;;6177766;23;20593;-83
2022/01/29 13:57:07;;;;;;;4.37;3.53;;;;;;;;;;6177732;23;20184;-84
2022/01/29 14:00:12;;;;;;;3.97;3.40;;;;;;;;;;6177731;23;20490;-83
2022/01/29 14:03:19;;;;;;;3.90;2.10;;;;;;;;;;6201535;23;20172;-83
2022/01/29 14:06:36;;;;;;;4.47;3.70;;;;;;;;;;6194978;23;20152;-84
2022/01/29 14:09:57;;;;;;;4.90;3.90;;;;;;;;;;6185311;23;20172;-84
2022/01/29 14:13:03;;;;;;;3.47;2.87;;;;;;;;;;6212919;23;20157;-83
2022/01/29 14:16:08;;;;;;;2.80;2.00;;;;;;;;;;6168846;23;20201;-87
2022/01/29 14:19:17;;;;;;;2.87;2.07;;;;;;;;;;6173532;23;20153;-85
2022/01/29 14:22:24;;;;;;;2.57;1.87;;;;;;;;;;6186459;23;20157;-85
2022/01/29 14:25:28;;;;;;;2.63;1.87;;;;;;;;;;6194998;23;20189;-85
2022/01/29 14:28:32;;;;;;;3.93;2.77;;;;;;;;;;6186161;23;20486;-85
2022/01/29 14:31:36;;;;;;;4.97;2.57;;;;;;;;;;6185552;23;20157;-85
2022/01/29 14:34:41;;;;;;;2.93;2.20;;;;;;;;;;6163125;23;20192;-84
2022/01/29 14:37:45;;;;;;;4.73;2.30;;;;;;;;;;6185257;23;20180;-86
2022/01/29 14:40:51;;;;;;;3.20;2.10;;;;;;;;;;6201932;23;20152;-85
2022/01/29 14:43:56;;;;;;;2.97;1.87;;;;;;;;;;6183304;23;20188;-85
2022/01/29 14:47:02;;;;;;;4.17;3.20;;;;;;;;;;6184457;23;20491;-84
2022/01/29 14:50:06;;;;;;;4.63;2.20;;;;;;;;;;6167302;23;20156;-84
2022/01/29 14:53:10;;;;;;;2.30;2.07;;;;;;;;;;6166566;23;20179;-84
2022/01/29 14:56:14;;;;;;;5.60;2.60;;;;;;;;;;6183561;23;20184;-84
2022/01/29 14:59:19;;;;;;;2.67;1.87;;;;;;;;;;6201243;23;20157;-85
2022/01/29 15:02:23;;;;;;;2.80;2.00;;;;;;;;;;6184611;23;20153;-84
2022/01/29 15:05:27;;;;;;;3.37;2.23;;;;;;;;;;6159085;23;20188;-84
2022/01/29 15:08:31;;;;;;;2.37;1.80;;;;;;;;;;6200317;23;20149;-84
2022/01/29 15:11:35;;;;;;;6.73;1.87;;;;;;;;;;6182796;23;20157;-84
2022/01/29 15:14:39;;;;;;;4.43;1.80;;;;;;;;;;6161054;23;20649;-84
2022/01/29 15:17:44;;;;;;;3.07;1.90;;;;;;;;;;6155779;23;20192;-85
2022/01/29 15:20:52;;;;;;;3.27;1.47;;;;;;;;;;6200271;23;20161;-84
2022/01/29 15:23:57;;;;;;;4.90;1.60;;;;;;;;;;6181083;23;20193;-86
2022/01/29 15:27:01;;;;;;;5.43;1.57;;;;;;;;;;6182830;23;20478;-84
2022/01/29 15:30:06;;;;;;;3.03;1.57;;;;;;;;;;6165544;23;20160;-84
2022/01/29 15:33:11;;;;;;;1.93;1.20;;;;;;;;;;6181823;23;20157;-86
2022/01/29 15:36:15;;;;;;;3.03;1.90;;;;;;;;;;6180927;23;20185;-86
2022/01/29 15:39:20;;;;;;;1.60;1.40;;;;;;;;;;6164638;23;20487;-87
2022/01/29 15:42:25;;;;;;;1.30;1.10;;;;;;;;;;6188234;23;20172;-87
2022/01/29 15:45:29;;;;;;;2.13;1.43;;;;;;;;;;6156801;23;20193;-86
2022/01/29 15:48:37;;;;;;;2.97;2.00;;;;;;;;;;6164815;23;20149;-85
2022/01/29 15:51:41;;;;;;;2.87;1.93;;;;;;;;;;6163065;23;20157;-87
2022/01/29 15:54:45;;;;;;;3.20;1.40;;;;;;;;;;6157488;23;20192;-87
2022/01/29 15:57:49;;;;;;;1.97;1.40;;;;;;;;;;6161605;23;20184;-87
2022/01/29 16:00:57;;;;;;;2.87;1.60;;;;;;;;;;6161846;23;20157;-86
2022/01/29 16:04:01;;;;;;;2.50;2.07;;;;;;;;;;6186953;23;20188;-86
2022/01/29 16:07:05;;;;;;;5.13;3.63;;;;;;;;;;6168723;23;20165;-87
2022/01/29 16:10:09;;;;;;;11.03;6.70;;;;;;;;;;6161230;23;20149;-86
2022/01/29 16:13:14;;;;;;;26.97;12.60;;;;;;;;;;6161938;23;20460;-87
2022/01/29 16:16:18;;;;;;;14.77;9.40;;;;;;;;;;6172598;23;20204;-88
2022/01/29 16:19:22;;;;;;;6.10;3.63;;;;;;;;;;6161086;23;20152;-87
2022/01/29 16:22:26;;;;;;;10.47;4.17;;;;;;;;;;6151194;23;20168;-87
2022/01/29 16:25:32;;;;;;;2.00;1.80;;;;;;;;;;6151782;23;20490;-86
2022/01/29 16:28:36;;;;;;;3.33;1.43;;;;;;;;;;6161610;23;20157;-87
2022/01/29 16:31:40;;;;;;;3.13;2.83;;;;;;;;;;6179445;23;20157;-87
2022/01/29 16:34:48;;;;;;;2.57;1.87;;;;;;;;;;6158294;23;20530;-87
2022/01/29 16:37:52;;;;;;;3.30;1.73;;;;;;;;;;6179626;23;20186;-88
2022/01/29 16:40:57;;;;;;;2.63;2.00;;;;;;;;;;6178099;23;20594;-86
2022/01/29 16:44:01;;;;;;;4.47;2.90;;;;;;;;;;6152810;23;20193;-87
2022/01/29 16:47:05;;;;;;;3.07;2.00;;;;;;;;;;6162520;23;20460;-87
2022/01/29 16:50:10;;;;;;;3.07;1.90;;;;;;;;;;6163080;23;20157;-87
2022/01/29 16:53:14;;;;;;;1.63;1.10;;;;;;;;;;6163767;23;20152;-87
2022/01/29 16:56:19;;;;;;;1.50;1.20;;;;;;;;;;6170260;23;20176;-87
2022/01/29 16:59:23;;;;;;;1.77;1.30;;;;;;;;;;6153547;23;20168;-87
2022/01/29 17:02:28;;;;;;;4.53;2.67;;;;;;;;;;6170408;23;20173;-86
2022/01/29 17:05:32;;;;;;;6.77;4.23;;;;;;;;;;6155075;23;20188;-88
2022/01/29 17:08:36;;;;;;;9.67;5.90;;;;;;;;;;6162888;23;20153;-87
2022/01/29 17:11:41;;;;;;;5.47;4.17;;;;;;;;;;6152452;23;20173;-88
2022/01/29 17:14:45;;;;;;;2.60;1.87;;;;;;;;;;6158148;23;20193;-87
2022/01/29 17:17:49;;;;;;;2.73;2.47;;;;;;;;;;6179790;23;20177;-88
2022/01/29 17:20:53;;;;;;;2.00;1.47;;;;;;;;;;6162646;23;20157;-87
2022/01/29 17:23:57;;;;;;;1.60;1.40;;;;;;;;;;6144117;23;20196;-88
2022/01/29 17:27:01;;;;;;;1.73;1.30;;;;;;;;;;6145899;23;20148;-88
2022/01/29 17:30:06;;;;;;;2.50;1.60;;;;;;;;;;6169374;23;20168;-88
2022/01/29 17:33:11;;;;;;;5.53;2.97;;;;;;;;;;6135774;23;20176;-88
2022/01/29 17:36:15;;;;;;;2.93;1.47;;;;;;;;;;6163006;23;20252;-88
2022/01/29 17:39:19;;;;;;;2.60;1.13;;;;;;;;;;6162316;23;20149;-88
2022/01/29 17:42:23;;;;;;;4.87;1.40;;;;;;;;;;6162952;23;20586;-87
2022/01/29 17:45:29;;;;;;;1.50;1.20;;;;;;;;;;6138126;23;20189;-87
2022/01/29 17:48:34;;;;;;;1.60;1.23;;;;;;;;;;6145579;23;20149;-88
2022/01/29 17:51:38;;;;;;;1.47;1.03;;;;;;;;;;6164153;23;20156;-87
2022/01/29 17:54:42;;;;;;;8.17;1.07;;;;;;;;;;6142100;23;20188;-89
2022/01/29 17:57:46;;;;;;;2.20;1.20;;;;;;;;;;6162932;23;20517;-87
2022/01/29 18:00:53;;;;;;;1.43;1.10;;;;;;;;;;6179853;23;20153;-88
2022/01/29 18:03:57;;;;;;;3.43;2.20;;;;;;;;;;6144209;23;20192;-88
2022/01/29 18:07:01;;;;;;;6.67;3.80;;;;;;;;;;6162694;23;20153;-88
2022/01/29 18:10:05;;;;;;;1.70;1.40;;;;;;;;;;6145173;23;20157;-87
2022/01/29 18:13:12;;;;;;;2.53;1.03;;;;;;;;;;6162330;23;20157;-87
2022/01/29 18:16:18;;;;;;;3.33;1.37;;;;;;;;;;6139878;23;20181;-87
2022/01/29 18:19:22;;;;;;;1.60;1.30;;;;;;;;;;6145606;23;20157;-87
2022/01/29 18:22:26;;;;;;;2.03;1.23;;;;;;;;;;6136450;23;20169;-87
2022/01/29 18:25:32;;;;;;;1.70;1.47;;;;;;;;;;6153643;23;20192;-87
2022/01/29 18:28:40;;;;;;;1.10;1.00;;;;;;;;;;6145068;23;20602;-88
2022/01/29 18:31:44;;;;;;;1.37;0.90;;;;;;;;;;6145996;23;20157;-87
2022/01/29 18:34:48;;;;;;;1.20;1.10;;;;;;;;;;6135170;23;20654;-88
2022/01/29 18:37:53;;;;;;;1.43;1.00;;;;;;;;;;6179585;23;20184;-87
2022/01/29 18:40:57;;;;;;;1.47;1.10;;;;;;;;;;6135892;23;20172;-87
2022/01/29 18:44:01;;;;;;;1.00;0.90;;;;;;;;;;6151954;23;20192;-87
2022/01/29 18:47:05;;;;;;;3.93;1.20;;;;;;;;;;6179366;23;20149;-87
2022/01/29 18:50:10;;;;;;;4.20;3.20;;;;;;;;;;6144698;23;20153;-87
2022/01/29 18:53:15;;;;;;;13.80;7.57;;;;;;;;;;6144427;23;20487;-87
2022/01/29 18:56:21;;;;;;;91.37;43.90;;;;;;;;;;6144620;23;20602;-88
2022/01/29 18:59:25;;;;;;;11.63;7.93;;;;;;;;;;6162461;23;20157;-86
2022/01/29 19:02:30;;;;;;;1.60;1.50;;;;;;;;;;6162098;23;20153;-87
2022/01/29 19:05:34;;;;;;;2.70;2.17;;;;;;;;;;6137072;23;20192;-88
2022/01/29 19:08:38;;;;;;;2.67;1.90;;;;;;;;;;6145078;23;20156;-87
2022/01/29 19:11:42;;;;;;;3.80;2.00;;;;;;;;;;6161457;23;20158;-87
2022/01/29 19:14:51;;;;;;;3.10;1.10;;;;;;;;;;6157167;23;20188;-86
2022/01/29 19:17:57;;;;;;;1.30;1.00;;;;;;;;;;6145185;23;20180;-87
2022/01/29 19:21:01;;;;;;;1.40;0.80;;;;;;;;;;6162098;23;20610;-87
2022/01/29 19:24:06;;;;;;;1.27;0.97;;;;;;;;;;6176475;23;20192;-87
2022/01/29 19:27:10;;;;;;;1.33;0.90;;;;;;;;;;6134604;23;20173;-87
2022/01/29 19:30:15;;;;;;;1.13;0.90;;;;;;;;;;6161563;23;20602;-87
2022/01/29 19:33:21;;;;;;;2.00;1.00;;;;;;;;;;6134357;23;20172;-87
2022/01/29 19:36:25;;;;;;;2.00;1.40;;;;;;;;;;6178566;23;20157;-87
2022/01/29 19:39:30;;;;;;;1.03;0.90;;;;;;;;;;6161739;23;20153;-87
2022/01/29 19:42:34;;;;;;;1.47;1.20;;;;;;;;;;6158364;23;20256;-87
2022/01/29 19:45:38;;;;;;;1.23;1.00;;;;;;;;;;6137014;23;20197;-87
2022/01/29 19:48:47;;;;;;;1.27;1.13;;;;;;;;;;6144605;23;20490;-87
2022/01/29 19:51:51;;;;;;;1.20;0.90;;;;;;;;;;6144632;23;20590;-86
2022/01/29 19:54:56;;;;;;;0.90;0.73;;;;;;;;;;6138708;23;20646;-86
2022/01/29 19:58:00;;;;;;;1.50;1.00;;;;;;;;;;6178416;23;20181;-86
2022/01/29 20:01:04;;;;;;;1.30;0.90;;;;;;;;;;6160616;23;20482;-87
2022/01/29 20:04:08;;;;;;;0.73;0.70;;;;;;;;;;6141928;23;20526;-86
2022/01/29 20:07:12;;;;;;;1.63;0.97;;;;;;;;;;6161373;23;20157;-86
2022/01/29 20:10:19;;;;;;;2.30;0.77;;;;;;;;;;6161227;23;20153;-86
2022/01/29 20:13:23;;;;;;;2.00;0.80;;;;;;;;;;6160866;23;20156;-86
2022/01/29 20:16:29;;;;;;;1.33;0.87;;;;;;;;;;6156378;23;20179;-86
2022/01/29 20:19:34;;;;;;;1.07;0.80;;;;;;;;;;6190956;23;20184;-87
2022/01/29 20:22:37;;;;;;;1.87;0.80;;;;;;;;;;6174442;23;20156;-86
2022/01/29 20:25:41;;;;;;;1.30;0.80;;;;;;;;;;6165388;23;20192;-86
2022/01/29 20:28:46;;;;;;;2.20;0.90;;;;;;;;;;6190789;23;20477;-87
2022/01/29 20:31:51;;;;;;;1.50;0.83;;;;;;;;;;6173609;23;20597;-86
2022/01/29 20:34:56;;;;;;;1.30;0.87;;;;;;;;;;6187110;23;20191;-85
2022/01/29 20:38:03;;;;;;;3.90;0.80;;;;;;;;;;6177835;23;20184;-86
2022/01/29 20:41:06;;;;;;;0.70;0.70;;;;;;;;;;6177384;23;20462;-86
2022/01/29 20:44:11;;;;;;;1.13;0.70;;;;;;;;;;6175233;23;20184;-86
2022/01/29 20:47:15;;;;;;;0.80;0.77;;;;;;;;;;6167207;23;20172;-86
2022/01/29 20:50:19;;;;;;;1.43;0.70;;;;;;;;;;6166990;23;20168;-86
2022/01/29 20:53:23;;;;;;;1.03;0.70;;;;;;;;;;6184352;23;20172;-86
2022/01/29 20:56:27;;;;;;;0.97;0.70;;;;;;;;;;6194753;23;20152;-86